Time;durP1;ratioP1;P1;durP2;ratioP2;P2;SDS_P1;SDS_P2;PMS_P1;PMS_P2;Temp;Humidity;BMP_temperature;BMP_pressure;BME280_temperature;BME280_humidity;BME280_pressure;Samples;Min_cycle;Max_cycle;Signal;HPM_P1;HPM_P2
2022/11/29 00:01:26;;;;;;;;;;;;;;;5.98;100.00;96178.22;5095990;28;19972;-78
2022/11/29 00:03:52;;;;;;;;;;;;;;;5.97;100.00;96187.03;5095321;28;19979;-78
2022/11/29 00:06:19;;;;;;;;;;;;;;;5.96;100.00;96178.41;5094813;28;19953;-79
2022/11/29 00:08:46;;;;;;;;;;;;;;;5.97;100.00;96180.03;5096125;28;19958;-78
2022/11/29 00:12:10;;;;;;;;;;;;;;;5.98;100.00;96183.44;5095504;28;19949;-78
2022/11/29 00:14:00;;;;;;;;;;;;;;;5.97;100.00;96177.44;5094353;28;19945;-78
2022/11/29 00:16:26;;;;;;;;;;;;;;;5.99;100.00;96179.84;5094582;28;19956;-79
2022/11/29 00:18:51;;;;;;;;;;;;;;;6.00;100.00;96177.03;5094558;28;19996;-79
2022/11/29 00:21:17;;;;;;;;;;;;;;;6.00;100.00;96177.03;5094253;28;19968;-79
2022/11/29 00:23:43;;;;;;;;;;;;;;;5.99;100.00;96174.63;5077759;28;19948;-78
2022/11/29 00:26:09;;;;;;;;;;;;;;;5.99;100.00;96172.81;5095617;28;19952;-79
2022/11/29 00:28:35;;;;;;;;;;;;;;;5.97;100.00;96177.44;5094064;28;19991;-78
2022/11/29 00:31:18;;;;;;;;;;;;;;;5.97;100.00;96168.81;5094263;28;19964;-78
2022/11/29 00:33:44;;;;;;;;;;;;;;;5.94;100.00;96175.16;5095396;28;20428;-78
2022/11/29 00:36:10;;;;;;;;;;;;;;;5.94;100.00;96169.16;5095241;28;20046;-79
2022/11/29 00:38:36;;;;;;;;;;;;;;;5.94;100.00;96171.78;5095298;28;19961;-78
2022/11/29 00:41:03;;;;;;;;;;;;;;;5.95;100.00;96176.81;5077068;28;19968;-78
2022/11/29 00:43:28;;;;;;;;;;;;;;;5.95;100.00;96171.59;5095271;28;19944;-78
2022/11/29 00:45:54;;;;;;;;;;;;;;;5.96;100.00;96178.41;5094953;28;19997;-78
2022/11/29 00:48:20;;;;;;;;;;;;;;;5.97;100.00;96176.63;5095052;28;19956;-78
2022/11/29 00:50:46;;;;;;;;;;;;;;;5.96;100.00;96175.00;5095325;28;19952;-78
2022/11/29 00:53:12;;;;;;;;;;;;;;;5.97;100.00;96176.63;5076920;28;19959;-78
2022/11/29 00:55:38;;;;;;;;;;;;;;;5.97;100.00;96185.22;5093804;28;20000;-78
2022/11/29 00:58:05;;;;;;;;;;;;;;;5.96;100.00;96183.63;5095088;28;19999;-78
2022/11/29 01:00:30;;;;;;;;;;;;;;;5.96;100.00;96181.00;5093984;28;19973;-78
2022/11/29 01:02:56;;;;;;;;;;;;;;;5.95;100.00;96182.03;5094796;28;19984;-78
2022/11/29 01:05:22;;;;;;;;;;;;;;;5.94;100.00;96182.19;5095035;28;19959;-78
2022/11/29 01:07:48;;;;;;;;;;;;;;;5.89;100.00;96175.75;5093520;28;19949;-78
2022/11/29 01:10:14;;;;;;;;;;;;;;;5.88;100.00;96176.75;5093206;28;19946;-78
2022/11/29 01:12:40;;;;;;;;;;;;;;;5.88;100.00;96181.97;5094857;28;19948;-78
2022/11/29 01:15:06;;;;;;;;;;;;;;;5.90;100.00;96179.19;5093588;28;19951;-78
2022/11/29 01:17:36;;;;;;;;;;;;;;;5.91;100.00;96183.38;5093039;28;19946;-78
2022/11/29 01:20:03;;;;;;;;;;;;;;;5.92;100.00;96178.97;5076679;28;19966;-78
2022/11/29 01:22:28;;;;;;;;;;;;;;;5.93;100.00;96183.19;5076285;28;19958;-78
2022/11/29 01:24:54;;;;;;;;;;;;;;;5.94;100.00;96187.38;5093393;28;20322;-78
2022/11/29 01:27:20;;;;;;;;;;;;;;;5.93;100.00;96189.19;5094755;28;19970;-78
2022/11/29 01:29:46;;;;;;;;;;;;;;;5.94;100.00;96187.38;5093169;28;19946;-78
2022/11/29 01:32:12;;;;;;;;;;;;;;;5.94;100.00;96187.38;5093638;28;20006;-79
2022/11/29 01:34:38;;;;;;;;;;;;;;;5.94;100.00;96182.19;5075816;28;20366;-78
2022/11/29 01:37:04;;;;;;;;;;;;;;;5.93;100.00;96184.00;5094120;28;19959;-78
2022/11/29 01:39:30;;;;;;;;;;;;;;;5.93;100.00;96180.59;5093890;28;19949;-78
2022/11/29 01:41:56;;;;;;;;;;;;;;;5.94;100.00;96180.38;5093261;28;19950;-78
2022/11/29 01:44:22;;;;;;;;;;;;;;;5.93;100.00;96178.78;5092818;28;19978;-78
2022/11/29 01:46:48;;;;;;;;;;;;;;;5.93;100.00;96178.78;5093037;28;20341;-78
2022/11/29 01:49:15;;;;;;;;;;;;;;;5.94;100.00;96187.38;5092803;28;20045;-79
2022/11/29 01:51:44;;;;;;;;;;;;;;;5.92;100.00;96179.75;5093102;28;19944;-78
2022/11/29 01:54:11;;;;;;;;;;;;;;;5.92;100.00;96178.97;5093793;28;19953;-78
2022/11/29 01:56:37;;;;;;;;;;;;;;;5.90;100.00;96177.38;5094172;28;19951;-78
2022/11/29 01:59:06;;;;;;;;;;;;;;;5.88;100.00;96174.16;5093703;28;19951;-78
2022/11/29 02:01:33;;;;;;;;;;;;;;;5.87;100.00;96175.16;5093697;28;19961;-78
2022/11/29 02:03:59;;;;;;;;;;;;;;;5.85;100.00;96173.75;5092630;28;19952;-78
2022/11/29 02:06:26;;;;;;;;;;;;;;;5.83;100.00;96168.72;5093605;28;20505;-78
2022/11/29 02:08:51;;;;;;;;;;;;;;;5.82;100.00;96168.94;5093755;28;19955;-78
2022/11/29 02:11:17;;;;;;;;;;;;;;;5.81;100.00;96173.31;5092691;28;19954;-78
2022/11/29 02:13:49;;;;;;;;;;;;;;;5.80;100.00;96174.34;5093778;28;19946;-78
2022/11/29 02:16:23;;;;;;;;;;;;;;;5.81;100.00;96172.53;5094132;28;19956;-78
2022/11/29 02:19:02;;;;;;;;;;;;;;;5.79;100.00;96187.53;5093751;28;19955;-78
2022/11/29 02:21:38;;;;;;;;;;;;;;;5.77;100.00;96179.91;5093564;28;19973;-78
2022/11/29 02:24:10;;;;;;;;;;;;;;;5.76;100.00;96177.53;5093045;28;19946;-78
2022/11/29 02:26:35;;;;;;;;;;;;;;;5.74;100.00;96171.72;5075822;28;20410;-78
2022/11/29 02:29:28;;;;;;;;;;;;;;;5.73;100.00;96173.47;5095855;28;19954;-78
2022/11/29 02:32:13;;;;;;;;;;;;;;;5.71;100.00;96175.47;5086593;28;20013;-78
2022/11/29 02:35:06;;;;;;;;;;;;;;;5.69;100.00;96177.47;5087477;28;19978;-78
2022/11/29 02:37:41;;;;;;;;;;;;;;;5.69;100.00;96177.47;5097673;28;19953;-78
2022/11/29 02:40:25;;;;;;;;;;;;;;;5.67;100.00;96174.28;5096155;28;19963;-78
2022/11/29 02:43:15;;;;;;;;;;;;;;;5.64;100.00;96172.84;5096709;28;19946;-78
2022/11/29 02:45:47;;;;;;;;;;;;;;;5.64;100.00;96182.47;5086459;28;19958;-78
2022/11/29 02:48:13;;;;;;;;;;;;;;;5.62;100.00;96177.44;5097190;28;20388;-77
2022/11/29 02:50:45;;;;;;;;;;;;;;;5.63;100.00;96180.88;5097287;28;19944;-78
2022/11/29 02:53:14;;;;;;;;;;;;;;;5.62;100.00;96189.66;5097327;28;19945;-78
2022/11/29 02:55:45;;;;;;;;;;;;;;;5.63;100.00;96197.28;5096003;28;19947;-78
2022/11/29 02:58:14;;;;;;;;;;;;;;;5.62;100.00;96187.84;5097394;28;20280;-78
2022/11/29 03:00:43;;;;;;;;;;;;;;;5.62;100.00;96192.25;5096951;28;19969;-78
2022/11/29 03:03:26;;;;;;;;;;;;;;;5.62;100.00;96192.25;5095919;28;19954;-78
2022/11/29 03:05:57;;;;;;;;;;;;;;;5.62;100.00;96187.06;5096232;28;20303;-78
2022/11/29 03:08:36;;;;;;;;;;;;;;;5.61;100.00;96194.06;5079204;28;19952;-78
2022/11/29 03:11:11;;;;;;;;;;;;;;;5.61;100.00;96190.66;5096931;28;19959;-77
2022/11/29 03:13:44;;;;;;;;;;;;;;;5.58;100.00;96191.03;5097194;28;19947;-78
2022/11/29 03:16:17;;;;;;;;;;;;;;;5.57;100.00;96189.44;5080010;28;19964;-77
2022/11/29 03:18:49;;;;;;;;;;;;;;;5.56;100.00;96199.00;5095895;28;19948;-78
2022/11/29 03:21:28;;;;;;;;;;;;;;;5.57;100.00;96199.84;5095474;28;19981;-78
2022/11/29 03:24:00;;;;;;;;;;;;;;;5.57;100.00;96198.03;5083609;28;19958;-78
2022/11/29 03:26:31;;;;;;;;;;;;;;;5.55;100.00;96194.81;5096753;28;20315;-78
2022/11/29 03:29:10;;;;;;;;;;;;;;;5.55;100.00;96200.03;5095745;28;19954;-78
2022/11/29 03:31:56;;;;;;;;;;;;;;;5.56;100.00;96203.44;5081971;28;19949;-78
2022/11/29 03:34:34;;;;;;;;;;;;;;;5.54;100.00;96206.22;5094785;28;19974;-78
2022/11/29 03:37:10;;;;;;;;;;;;;;;5.54;100.00;96210.63;5095760;28;19946;-78
2022/11/29 03:39:41;;;;;;;;;;;;;;;5.52;100.00;96200.41;5096335;28;19952;-78
2022/11/29 03:42:12;;;;;;;;;;;;;;;5.52;100.00;96207.41;5096209;28;19961;-78
2022/11/29 03:44:56;;;;;;;;;;;;;;;5.51;100.00;96208.41;5096302;28;19974;-78
2022/11/29 03:47:26;;;;;;;;;;;;;;;5.52;100.00;96215.19;5088493;28;19946;-78
2022/11/29 03:50:28;;;;;;;;;;;;;;;5.52;100.00;96208.19;5096467;28;19950;-78
2022/11/29 03:52:54;;;;;;;;;;;;;;;5.52;100.00;96215.19;5046260;28;19954;-78
2022/11/29 03:55:20;;;;;;;;;;;;;;;5.53;100.00;96216.81;5082575;28;19968;-78
2022/11/29 03:57:52;;;;;;;;;;;;;;;5.54;100.00;96215.81;5096029;28;20324;-78
2022/11/29 04:00:18;;;;;;;;;;;;;;;5.54;100.00;96218.41;5096042;28;19962;-78
2022/11/29 04:03:03;;;;;;;;;;;;;;;5.55;100.00;96223.44;5095856;28;20024;-78
2022/11/29 04:05:32;;;;;;;;;;;;;;;5.56;100.00;96226.84;5095817;28;19952;-78
2022/11/29 04:08:37;;;;;;;;;;;;;;;5.55;100.00;96220.84;5095048;28;19953;-77
2022/11/29 04:11:21;;;;;;;;;;;;;;;5.55;100.00;96222.63;5050072;28;19959;-77
2022/11/29 04:13:55;;;;;;;;;;;;;;;5.54;100.00;96223.63;5073314;28;19944;-78
2022/11/29 04:16:21;;;;;;;;;;;;;;;5.53;100.00;96222.81;5087719;28;19954;-77
2022/11/29 04:18:47;;;;;;;;;;;;;;;5.53;100.00;96225.44;5095820;28;19946;-78
2022/11/29 04:21:40;;;;;;;;;;;;;;;5.54;100.00;96228.81;5094313;28;20000;-78
2022/11/29 04:24:26;;;;;;;;;;;;;;;5.54;100.00;96223.63;5095421;28;20346;-77
2022/11/29 04:26:58;;;;;;;;;;;;;;;5.55;100.00;96233.03;5087707;28;20391;-78
2022/11/29 04:29:30;;;;;;;;;;;;;;;5.55;100.00;96230.44;5095826;28;19960;-78
2022/11/29 04:31:56;;;;;;;;;;;;;;;5.57;100.00;96236.25;5095406;28;19950;-77
2022/11/29 04:34:33;;;;;;;;;;;;;;;5.56;100.00;96240.63;5094995;28;19973;-78
2022/11/29 04:37:02;;;;;;;;;;;;;;;5.57;100.00;96238.88;5095443;28;19956;-78
2022/11/29 04:39:31;;;;;;;;;;;;;;;5.55;100.00;96246.84;5095382;28;20443;-78
2022/11/29 04:42:08;;;;;;;;;;;;;;;5.53;100.00;96245.44;5095511;28;19962;-78
2022/11/29 04:44:55;;;;;;;;;;;;;;;5.52;100.00;96246.41;5095167;28;19943;-78
2022/11/29 04:47:47;;;;;;;;;;;;;;;5.51;100.00;96243.03;5094308;28;19947;-78
2022/11/29 04:50:23;;;;;;;;;;;;;;;5.53;100.00;96242.84;5081744;28;19949;-78
2022/11/29 04:53:15;;;;;;;;;;;;;;;5.54;100.00;96247.81;5094494;28;19975;-78
2022/11/29 04:55:53;;;;;;;;;;;;;;;5.54;100.00;96253.03;5095074;28;19948;-78
2022/11/29 04:58:19;;;;;;;;;;;;;;;5.55;100.00;96256.47;5094948;28;19948;-78
2022/11/29 05:00:57;;;;;;;;;;;;;;;5.55;100.00;96253.84;5094877;28;19999;-79
2022/11/29 05:03:41;;;;;;;;;;;;;;;5.54;100.00;96250.44;5093504;28;19949;-78
2022/11/29 05:06:16;;;;;;;;;;;;;;;5.53;100.00;96255.84;5095268;28;20329;-78
2022/11/29 05:09:01;;;;;;;;;;;;;;;5.53;100.00;96255.84;5094594;28;19944;-78
2022/11/29 05:11:39;;;;;;;;;;;;;;;5.51;100.00;96260.44;5094805;28;19944;-78
2022/11/29 05:14:18;;;;;;;;;;;;;;;5.51;100.00;96260.44;5094643;28;19958;-78
2022/11/29 05:16:46;;;;;;;;;;;;;;;5.51;100.00;96261.22;5095123;28;19952;-78
2022/11/29 05:19:33;;;;;;;;;;;;;;;5.53;100.00;96266.25;5094381;28;19955;-78
2022/11/29 05:22:11;;;;;;;;;;;;;;;5.54;100.00;96267.84;5093145;28;19958;-78
2022/11/29 05:24:37;;;;;;;;;;;;;;;5.55;100.00;96264.25;5094387;28;19956;-78
2022/11/29 05:27:06;;;;;;;;;;;;;;;5.56;100.00;96269.25;5094190;28;19950;-78
2022/11/29 05:29:32;;;;;;;;;;;;;;;5.56;100.00;96271.84;5093300;28;20012;-78
2022/11/29 05:32:01;;;;;;;;;;;;;;;5.58;100.00;96267.25;5094214;28;19945;-78
2022/11/29 05:34:39;;;;;;;;;;;;;;;5.56;100.00;96266.66;5094210;28;19971;-78
2022/11/29 05:37:23;;;;;;;;;;;;;;;5.56;100.00;96273.66;5094800;28;19953;-78
2022/11/29 05:40:08;;;;;;;;;;;;;;;5.55;100.00;96265.06;5076194;28;19947;-78
2022/11/29 05:42:53;;;;;;;;;;;;;;;5.56;100.00;96273.66;5093188;28;19944;-78
2022/11/29 05:45:29;;;;;;;;;;;;;;;5.57;100.00;96276.06;5093909;28;19947;-78
2022/11/29 05:48:03;;;;;;;;;;;;;;;5.57;100.00;96270.06;5094304;28;19950;-78
2022/11/29 05:50:35;;;;;;;;;;;;;;;5.58;100.00;96275.06;5092992;28;19953;-77
2022/11/29 05:53:11;;;;;;;;;;;;;;;5.57;100.00;96270.88;5094055;28;19953;-78
2022/11/29 05:55:40;;;;;;;;;;;;;;;5.59;100.00;96274.09;5075954;28;19956;-78
2022/11/29 05:58:26;;;;;;;;;;;;;;;5.59;100.00;96279.28;5092880;28;19957;-78
2022/11/29 06:00:58;;;;;;;;;;;;;;;5.59;100.00;96279.28;5094184;28;19960;-77
2022/11/29 06:03:24;;;;;;;;;;;;;;;5.59;100.00;96279.28;5092542;28;19961;-78
2022/11/29 06:05:56;;;;;;;;;;;;;;;5.60;100.00;96286.09;5094043;28;19963;-77
2022/11/29 06:08:26;;;;;;;;;;;;;;;5.60;100.00;96275.69;5093141;28;20430;-77
2022/11/29 06:11:10;;;;;;;;;;;;;;;5.61;100.00;96281.72;5093763;28;19949;-78
2022/11/29 06:13:36;;;;;;;;;;;;;;;5.60;100.00;96282.69;5092875;28;19961;-77
2022/11/29 06:16:09;;;;;;;;;;;;;;;5.61;100.00;96289.50;5092559;28;20326;-78
2022/11/29 06:18:41;;;;;;;;;;;;;;;5.60;100.00;96288.69;5092716;28;20322;-77
2022/11/29 06:21:46;;;;;;;;;;;;;;;5.61;100.00;96289.50;5093516;28;20646;-78
2022/11/29 06:24:33;;;;;;;;;;;;;;;5.60;100.00;96288.69;5046246;28;19957;-77
2022/11/29 06:27:04;;;;;;;;;;;;;;;5.61;100.00;96289.50;5051195;28;19956;-78
2022/11/29 06:29:43;;;;;;;;;;;;;;;5.60;100.00;96293.88;5078476;28;19949;-77
2022/11/29 06:32:09;;;;;;;;;;;;;;;5.60;100.00;96295.69;5093565;28;20432;-78
2022/11/29 06:34:41;;;;;;;;;;;;;;;5.62;100.00;96301.50;5093329;28;19977;-78
2022/11/29 06:37:24;;;;;;;;;;;;;;;5.61;100.00;96298.13;5092233;28;20010;-78
2022/11/29 06:39:50;;;;;;;;;;;;;;;5.62;100.00;96304.13;5075909;28;19960;-78
2022/11/29 06:42:16;;;;;;;;;;;;;;;5.60;100.00;96298.28;5093414;28;19969;-77
2022/11/29 06:44:42;;;;;;;;;;;;;;;5.61;100.00;96297.31;5093937;28;20039;-78
2022/11/29 06:47:12;;;;;;;;;;;;;;;5.61;100.00;96308.53;5093542;28;19956;-78
2022/11/29 06:49:44;;;;;;;;;;;;;;;5.62;100.00;96311.91;5092490;28;19945;-77
2022/11/29 06:52:29;;;;;;;;;;;;;;;5.62;100.00;96310.13;5096223;28;20415;-78
2022/11/29 06:55:09;;;;;;;;;;;;;;;5.62;100.00;96317.91;5077533;28;20092;-77
2022/11/29 06:57:53;;;;;;;;;;;;;;;5.62;100.00;96323.13;5081862;28;19951;-78
2022/11/29 07:00:21;;;;;;;;;;;;;;;5.62;100.00;96325.72;5094724;28;19950;-78
2022/11/29 07:03:02;;;;;;;;;;;;;;;5.64;100.00;96318.53;5094636;28;19965;-78
2022/11/29 07:05:30;;;;;;;;;;;;;;;5.63;100.00;96319.53;5095845;28;19960;-78
2022/11/29 07:07:59;;;;;;;;;;;;;;;5.63;100.00;96322.13;5093724;28;19950;-78
2022/11/29 07:10:25;;;;;;;;;;;;;;;5.65;100.00;96325.34;5092027;28;19949;-78
2022/11/29 07:12:51;;;;;;;;;;;;;;;5.67;100.00;96325.19;5091995;28;19946;-77
2022/11/29 07:15:19;;;;;;;;;;;;;;;5.66;100.00;96326.16;5095491;28;19998;-78
2022/11/29 07:18:08;;;;;;;;;;;;;;;5.67;100.00;96330.38;5096885;28;20428;-78
2022/11/29 07:20:48;;;;;;;;;;;;;;;5.68;100.00;96335.38;5076283;28;19944;-78
2022/11/29 07:23:34;;;;;;;;;;;;;;;5.69;100.00;96336.16;5097280;28;19951;-78
2022/11/29 07:26:00;;;;;;;;;;;;;;;5.69;100.00;96346.56;5090029;28;19948;-78
2022/11/29 07:28:29;;;;;;;;;;;;;;;5.69;100.00;96347.41;5095234;28;19952;-78
2022/11/29 07:31:10;;;;;;;;;;;;;;;5.70;100.00;96343.00;5095667;28;19955;-78
2022/11/29 07:33:49;;;;;;;;;;;;;;;5.67;100.00;96348.59;5096431;28;19986;-78
2022/11/29 07:36:24;;;;;;;;;;;;;;;5.67;100.00;96348.59;5096952;28;19973;-78
2022/11/29 07:38:56;;;;;;;;;;;;;;;5.68;100.00;96347.59;5095404;28;19953;-78
2022/11/29 07:41:25;;;;;;;;;;;;;;;5.67;100.00;96343.38;5095310;28;19964;-78
2022/11/29 07:43:58;;;;;;;;;;;;;;;5.69;100.00;96351.78;5096553;28;19951;-78
2022/11/29 07:46:24;;;;;;;;;;;;;;;5.70;100.00;96346.41;5096469;28;20400;-78
2022/11/29 07:48:50;;;;;;;;;;;;;;;5.70;100.00;96356.00;5095026;28;19961;-78
2022/11/29 07:51:16;;;;;;;;;;;;;;;5.69;100.00;96355.22;5096277;28;19952;-78
2022/11/29 07:53:42;;;;;;;;;;;;;;;5.70;100.00;96358.59;5096131;28;19947;-78
2022/11/29 07:56:08;;;;;;;;;;;;;;;5.68;100.00;96358.00;5096083;28;19952;-78
2022/11/29 07:58:34;;;;;;;;;;;;;;;5.68;100.00;96358.00;5096227;28;19960;-78
2022/11/29 08:01:01;;;;;;;;;;;;;;;5.69;100.00;96364.78;5094812;28;19970;-78
2022/11/29 08:03:28;;;;;;;;;;;;;;;5.70;100.00;96363.81;5095034;28;20551;-78
2022/11/29 08:05:54;;;;;;;;;;;;;;;5.69;100.00;96367.38;5096955;28;19957;-78
2022/11/29 08:08:20;;;;;;;;;;;;;;;5.68;100.00;96358.78;5097781;28;19949;-78
2022/11/29 08:10:46;;;;;;;;;;;;;;;5.68;100.00;96371.00;5097416;28;19957;-78
2022/11/29 08:13:12;;;;;;;;;;;;;;;5.69;100.00;96375.19;5096923;28;20314;-78
2022/11/29 08:15:42;;;;;;;;;;;;;;;5.69;100.00;96367.38;5080459;28;20307;-78
2022/11/29 08:18:08;;;;;;;;;;;;;;;5.70;100.00;96371.63;5100108;28;19955;-78
2022/11/29 08:20:34;;;;;;;;;;;;;;;5.70;100.00;96375.00;5100840;28;19957;-76
2022/11/29 08:23:01;;;;;;;;;;;;;;;5.70;100.00;96377.63;5100287;28;20006;-78
2022/11/29 08:25:27;;;;;;;;;;;;;;;5.72;100.00;96385.25;5081071;28;20406;-78
2022/11/29 08:27:54;;;;;;;;;;;;;;;5.72;100.00;96385.25;5095937;28;19990;-78
2022/11/29 08:30:23;;;;;;;;;;;;;;;5.73;100.00;96381.63;5095656;28;19948;-78
2022/11/29 08:32:49;;;;;;;;;;;;;;;5.75;100.00;96386.66;5097607;28;19954;-78
2022/11/29 08:35:16;;;;;;;;;;;;;;;5.75;100.00;96384.84;5098577;28;20002;-78
2022/11/29 08:37:42;;;;;;;;;;;;;;;5.77;100.00;96389.88;5098347;28;19961;-78
2022/11/29 08:40:08;;;;;;;;;;;;;;;5.77;100.00;96384.66;5096241;28;19964;-78
2022/11/29 08:42:34;;;;;;;;;;;;;;;5.79;100.00;96398.28;5093902;28;20420;-78
2022/11/29 08:45:00;;;;;;;;;;;;;;;5.79;100.00;96387.88;5094055;28;20330;-78
2022/11/29 08:47:35;;;;;;;;;;;;;;;5.79;100.00;96393.09;5094635;28;19960;-78
2022/11/29 08:50:02;;;;;;;;;;;;;;;5.78;100.00;96394.91;5096305;28;19943;-78
2022/11/29 08:55:13;;;;;;;;;;;;;;;5.79;100.00;96395.69;5095728;28;19960;-78
2022/11/29 08:57:39;;;;;;;;;;;;;;;5.79;100.00;96393.09;5095274;28;19953;-78
2022/11/29 09:00:05;;;;;;;;;;;;;;;5.81;100.00;96398.91;5095242;28;19960;-78
2022/11/29 09:02:31;;;;;;;;;;;;;;;5.79;100.00;96404.28;5093655;28;19963;-78
2022/11/29 09:04:57;;;;;;;;;;;;;;;5.78;100.00;96402.72;5094815;28;19979;-78
2022/11/29 09:07:22;;;;;;;;;;;;;;;5.79;100.00;96399.09;5093395;28;20043;-78
2022/11/29 09:09:48;;;;;;;;;;;;;;;5.80;100.00;96405.94;5093484;28;19987;-78
2022/11/29 09:12:14;;;;;;;;;;;;;;;5.81;100.00;96407.53;5095052;28;19957;-78
2022/11/29 09:14:40;;;;;;;;;;;;;;;5.82;100.00;96405.75;5094570;28;19949;-78
2022/11/29 09:17:06;;;;;;;;;;;;;;;5.80;100.00;96411.13;5094623;28;19962;-79
2022/11/29 09:19:32;;;;;;;;;;;;;;;5.79;100.00;96409.50;5094652;28;19960;-78
2022/11/29 09:21:57;;;;;;;;;;;;;;;5.80;100.00;96416.34;5095127;28;20005;-78
2022/11/29 09:24:23;;;;;;;;;;;;;;;5.79;100.00;96417.31;5094528;28;19995;-78
2022/11/29 09:26:49;;;;;;;;;;;;;;;5.74;100.00;96416.28;5093327;28;19950;-78
2022/11/29 09:29:15;;;;;;;;;;;;;;;5.73;100.00;96415.47;5093098;28;19961;-78
2022/11/29 09:31:43;;;;;;;;;;;;;;;5.74;100.00;96418.88;5059918;28;19954;-77
2022/11/29 09:34:13;;;;;;;;;;;;;;;5.75;100.00;96425.69;5093501;28;19975;-78
2022/11/29 09:36:39;;;;;;;;;;;;;;;5.70;100.00;96428.84;5095866;28;19959;-78
2022/11/29 09:39:05;;;;;;;;;;;;;;;5.65;100.00;96429.41;5093776;28;19945;-78
2022/11/29 09:41:31;;;;;;;;;;;;;;;5.65;100.00;96432.03;5094352;28;20346;-78
2022/11/29 09:43:59;;;;;;;;;;;;;;;5.68;100.00;96425.63;5093141;28;19956;-78
2022/11/29 09:46:25;;;;;;;;;;;;;;;5.69;100.00;96435.03;5094390;28;20324;-78
2022/11/29 09:49:06;;;;;;;;;;;;;;;5.73;100.00;96428.47;5076299;28;19948;-78
2022/11/29 09:51:42;;;;;;;;;;;;;;;5.79;100.00;96432.13;5094149;28;19954;-78
2022/11/29 09:54:32;;;;;;;;;;;;;;;5.83;100.00;96433.38;5093406;28;19946;-78
2022/11/29 09:56:58;;;;;;;;;;;;;;;5.87;100.00;96434.59;5094108;28;19948;-78
2022/11/29 09:59:27;;;;;;;;;;;;;;;5.88;100.00;96433.63;5094028;28;19950;-78
2022/11/29 10:02:02;;;;;;;;;;;;;;;5.89;100.00;96430.00;5093553;28;19961;-79
2022/11/29 10:04:29;;;;;;;;;;;;;;;5.88;100.00;96434.41;5093147;28;19949;-79
2022/11/29 10:07:05;;;;;;;;;;;;;;;5.93;100.00;96435.66;5093874;28;19951;-78
2022/11/29 10:09:41;;;;;;;;;;;;;;;5.93;100.00;96435.66;5094339;28;20002;-78
2022/11/29 10:12:26;;;;;;;;;;;;;;;5.95;100.00;96431.88;5093816;28;19955;-78
2022/11/29 10:14:56;;;;;;;;;;;;;;;6.01;100.00;96435.53;5118500;27;19954;-78
2022/11/29 10:17:30;;;;;;;;;;;;;;;6.02;100.00;96432.72;5093995;28;19942;-78
2022/11/29 10:20:01;;;;;;;;;;;;;;;6.06;100.00;96435.78;5098916;28;19953;-78
2022/11/29 10:22:26;;;;;;;;;;;;;;;6.10;100.00;96439.59;5101834;28;19971;-78
2022/11/29 10:24:56;;;;;;;;;;;;;;;6.10;100.00;96434.41;5081101;28;19947;-78
2022/11/29 10:27:23;;;;;;;;;;;;;;;6.13;100.00;96438.41;5099374;28;19948;-78
2022/11/29 10:29:50;;;;;;;;;;;;;;;6.16;100.00;96438.06;5097982;28;19953;-78
2022/11/29 10:32:18;;;;;;;;;;;;;;;6.18;100.00;96438.66;5096699;28;19959;-78
2022/11/29 10:34:44;;;;;;;;;;;;;;;6.20;100.00;96429.66;5097005;28;19976;-79
2022/11/29 10:37:16;;;;;;;;;;;;;;;6.22;100.00;96426.88;5092406;28;19963;-79
2022/11/29 10:39:51;;;;;;;;;;;;;;;6.22;100.00;96430.28;5094074;28;19946;-78
2022/11/29 10:45:14;;;;;;;;;;;;;;;6.29;100.00;96431.13;5093476;28;19951;-78
2022/11/29 10:47:40;;;;;;;;;;;;;;;6.33;100.00;96428.94;5093874;28;19943;-78
2022/11/29 10:50:06;;;;;;;;;;;;;;;6.36;100.00;96432.97;5096041;28;19952;-78
2022/11/29 10:52:32;;;;;;;;;;;;;;;6.38;100.00;96430.97;5097406;28;19966;-78
2022/11/29 10:54:58;;;;;;;;;;;;;;;6.38;100.00;96429.16;5097404;28;19950;-79
2022/11/29 10:57:24;;;;;;;;;;;;;;;6.41;100.00;96426.19;5097396;28;19958;-78
2022/11/29 11:00:05;;;;;;;;;;;;;;;6.43;100.00;96420.78;5097710;28;19954;-79
2022/11/29 11:02:32;;;;;;;;;;;;;;;6.46;100.00;96423.00;5097241;28;19967;-79
2022/11/29 11:04:59;;;;;;;;;;;;;;;6.49;100.00;96428.63;5097787;28;20323;-78
2022/11/29 11:07:30;;;;;;;;;;;;;;;6.53;100.00;96428.25;5080234;28;19947;-78
2022/11/29 11:09:56;;;;;;;;;;;;;;;6.54;100.00;96428.06;5130264;27;19941;-78
2022/11/29 11:12:26;;;;;;;;;;;;;;;6.55;100.00;96431.47;5097562;28;19948;-78
2022/11/29 11:15:11;;;;;;;;;;;;;;;6.53;100.00;96425.63;5096892;28;19951;-78
2022/11/29 11:17:38;;;;;;;;;;;;;;;6.50;100.00;96425.03;5097700;28;19960;-78
2022/11/29 11:20:21;;;;;;;;;;;;;;;6.47;100.00;96419.41;5096864;28;19948;-78
2022/11/29 11:23:01;;;;;;;;;;;;;;;6.44;100.00;96420.59;5098904;28;19954;-78
2022/11/29 11:25:27;;;;;;;;;;;;;;;6.45;100.00;96421.41;5103506;28;19948;-78
2022/11/29 11:27:53;;;;;;;;;;;;;;;6.47;100.00;96425.41;5103106;28;19978;-78
2022/11/29 11:30:23;;;;;;;;;;;;;;;6.50;100.00;96421.63;5102336;28;20054;-78
2022/11/29 11:33:17;;;;;;;;;;;;;;;6.53;100.00;96423.03;5099258;28;19947;-78
2022/11/29 11:35:43;;;;;;;;;;;;;;;6.55;100.00;96421.03;5087921;28;19972;-78
2022/11/29 11:38:16;;;;;;;;;;;;;;;6.58;100.00;96423.28;5096877;28;19958;-78
2022/11/29 11:40:42;;;;;;;;;;;;;;;6.60;100.00;96427.28;5096982;28;20296;-78
2022/11/29 11:43:14;;;;;;;;;;;;;;;6.62;100.00;96430.50;5096726;28;19979;-78
2022/11/29 11:45:40;;;;;;;;;;;;;;;6.65;100.00;96430.09;5095483;28;19986;-78
2022/11/29 11:48:15;;;;;;;;;;;;;;;6.67;100.00;96432.53;5096314;28;19960;-78
2022/11/29 11:50:44;;;;;;;;;;;;;;;6.67;100.00;96429.91;5096568;28;19959;-78
2022/11/29 11:53:30;;;;;;;;;;;;;;;6.64;100.00;96432.94;5096669;28;19954;-79
2022/11/29 11:55:58;;;;;;;;;;;;;;;6.61;100.00;96438.50;5096270;28;19942;-78
2022/11/29 11:58:36;;;;;;;;;;;;;;;6.60;100.00;96436.91;5094907;28;20394;-78
2022/11/29 12:01:11;;;;;;;;;;;;;;;6.58;100.00;96442.31;5093815;28;19946;-78
2022/11/29 12:03:56;;;;;;;;;;;;;;;6.57;100.00;96442.50;5098543;28;19975;-78
2022/11/29 12:06:49;;;;;;;;;;;;;;;6.55;100.00;96445.31;5132686;27;19965;-78
2022/11/29 12:09:18;;;;;;;;;;;;;;;6.58;100.00;96444.91;5094578;28;19939;-78
2022/11/29 12:11:55;;;;;;;;;;;;;;;6.60;100.00;96448.13;5097572;28;19951;-78
2022/11/29 12:14:27;;;;;;;;;;;;;;;6.61;100.00;96443.72;5095313;28;19954;-78
2022/11/29 12:16:57;;;;;;;;;;;;;;;6.60;100.00;96450.75;5095818;28;19951;-78
2022/11/29 12:19:27;;;;;;;;;;;;;;;6.60;100.00;96448.13;5094506;28;19969;-78
2022/11/29 12:21:58;;;;;;;;;;;;;;;6.60;100.00;96452.56;5096056;28;19960;-78
2022/11/29 12:24:31;;;;;;;;;;;;;;;6.61;100.00;96448.94;5096099;28;19962;-78
2022/11/29 12:27:02;;;;;;;;;;;;;;;6.60;100.00;96448.13;5095688;28;19947;-78
2022/11/29 12:29:30;;;;;;;;;;;;;;;6.61;100.00;96448.94;5094200;28;19958;-78
2022/11/29 12:32:14;;;;;;;;;;;;;;;6.60;100.00;96450.75;5095678;28;19941;-78
2022/11/29 12:35:01;;;;;;;;;;;;;;;6.59;100.00;96456.13;5094119;28;19976;-78
2022/11/29 12:37:46;;;;;;;;;;;;;;;6.62;100.00;96455.78;5083281;28;19956;-78
2022/11/29 12:40:12;;;;;;;;;;;;;;;6.62;100.00;96456.56;5121831;27;19948;-78
2022/11/29 12:42:38;;;;;;;;;;;;;;;6.63;100.00;96463.38;5095232;28;19964;-78
2022/11/29 12:45:28;;;;;;;;;;;;;;;6.63;100.00;96460.78;5095524;28;20418;-78
2022/11/29 12:48:13;;;;;;;;;;;;;;;6.64;100.00;96459.00;5087803;28;19950;-78
2022/11/29 12:51:00;;;;;;;;;;;;;;;6.66;100.00;96462.22;5095489;28;19951;-78
2022/11/29 12:53:26;;;;;;;;;;;;;;;6.68;100.00;96462.81;5095003;28;19950;-78
2022/11/29 12:56:01;;;;;;;;;;;;;;;6.67;100.00;96459.38;5095150;28;19947;-78
2022/11/29 12:58:49;;;;;;;;;;;;;;;6.69;100.00;96469.63;5076767;28;19941;-78
2022/11/29 13:01:34;;;;;;;;;;;;;;;6.71;100.00;96465.03;5094964;28;19955;-78
2022/11/29 13:04:12;;;;;;;;;;;;;;;6.74;100.00;96467.25;5093586;28;19975;-78
2022/11/29 13:06:56;;;;;;;;;;;;;;;6.76;100.00;96467.88;5094821;28;19957;-78
2022/11/29 13:09:25;;;;;;;;;;;;;;;6.78;100.00;96468.47;5093363;28;19952;-78
2022/11/29 13:11:57;;;;;;;;;;;;;;;6.82;100.00;96467.06;5094402;28;19950;-78
2022/11/29 13:14:23;;;;;;;;;;;;;;;6.87;100.00;96469.94;5094613;28;19953;-78
2022/11/29 13:17:02;;;;;;;;;;;;;;;6.89;100.00;96473.16;5094714;28;20443;-78
2022/11/29 13:19:36;;;;;;;;;;;;;;;6.91;100.00;96465.13;5094627;28;19953;-78